Time;durP1;ratioP1;P1;durP2;ratioP2;P2;SDS_P1;SDS_P2;PMS_P1;PMS_P2;Temp;Humidity;BMP_temperature;BMP_pressure;BME280_temperature;BME280_humidity;BME280_pressure;Samples;Min_cycle;Max_cycle;Signal;HPM_P1;HPM_P2
2022/12/08 00:01:13;;;;;;;8.53;4.50;;;;;;;;;;5111360;28;20203;-62
2022/12/08 00:03:40;;;;;;;3.43;3.13;;;;;;;;;;5109610;28;20212;-62
2022/12/08 00:11:41;;;;;;;5.77;3.67;;;;;;;;;;5092002;28;20664;-62
2022/12/08 00:14:08;;;;;;;6.53;4.13;;;;;;;;;;5101279;28;20204;-62
2022/12/08 00:16:35;;;;;;;6.47;4.33;;;;;;;;;;5111358;28;20224;-62
2022/12/08 00:19:02;;;;;;;8.07;4.00;;;;;;;;;;5111698;28;20235;-62
2022/12/08 00:21:30;;;;;;;9.03;4.40;;;;;;;;;;5109852;28;20591;-62
2022/12/08 00:23:58;;;;;;;8.37;5.00;;;;;;;;;;5110438;28;20220;-62
2022/12/08 00:26:25;;;;;;;7.10;4.37;;;;;;;;;;5091348;28;20207;-63
2022/12/08 00:28:52;;;;;;;5.93;4.60;;;;;;;;;;5091692;28;20207;-62
2022/12/08 00:31:19;;;;;;;8.00;5.17;;;;;;;;;;5106775;28;20625;-62
2022/12/08 00:33:46;;;;;;;10.67;4.53;;;;;;;;;;5109657;28;20205;-63
2022/12/08 00:36:15;;;;;;;6.27;3.87;;;;;;;;;;5111012;28;20215;-62
2022/12/08 00:38:43;;;;;;;6.73;4.43;;;;;;;;;;5111512;27;20705;-62
2022/12/08 00:41:13;;;;;;;8.27;4.47;;;;;;;;;;5109352;28;20299;-63
2022/12/08 00:43:41;;;;;;;6.43;4.67;;;;;;;;;;5110693;28;20208;-62
2022/12/08 00:46:08;;;;;;;7.23;4.53;;;;;;;;;;5108032;28;20589;-62
2022/12/08 00:48:35;;;;;;;7.93;4.87;;;;;;;;;;5102284;27;20197;-62
2022/12/08 00:51:02;;;;;;;8.37;5.13;;;;;;;;;;5094239;28;20222;-62
2022/12/08 00:53:31;;;;;;;9.07;5.10;;;;;;;;;;5105941;28;20205;-62
2022/12/08 00:55:58;;;;;;;8.77;4.73;;;;;;;;;;5109914;28;20248;-62
2022/12/08 00:58:26;;;;;;;5.30;3.83;;;;;;;;;;5110086;27;20689;-62
2022/12/08 01:00:53;;;;;;;10.43;5.43;;;;;;;;;;5090733;28;20752;-62
2022/12/08 01:03:20;;;;;;;8.67;4.53;;;;;;;;;;5090094;28;20209;-63
2022/12/08 01:05:47;;;;;;;10.83;4.93;;;;;;;;;;5090067;28;20217;-63
2022/12/08 01:08:14;;;;;;;6.53;4.73;;;;;;;;;;5095209;28;20367;-61
2022/12/08 01:10:41;;;;;;;9.97;4.63;;;;;;;;;;5095004;28;20222;-61
2022/12/08 01:13:09;;;;;;;10.67;5.00;;;;;;;;;;5102971;28;20205;-61
2022/12/08 01:15:37;;;;;;;6.77;4.63;;;;;;;;;;5104860;28;20210;-62
2022/12/08 01:18:04;;;;;;;9.53;4.83;;;;;;;;;;5091140;28;20223;-61
2022/12/08 01:20:31;;;;;;;6.50;4.13;;;;;;;;;;5091344;28;20305;-62
2022/12/08 01:22:58;;;;;;;6.67;4.40;;;;;;;;;;5094223;28;20213;-62
2022/12/08 01:25:26;;;;;;;9.03;5.63;;;;;;;;;;5106198;28;20755;-62
2022/12/08 01:27:53;;;;;;;7.50;4.90;;;;;;;;;;5097668;28;20582;-61
2022/12/08 01:30:20;;;;;;;8.70;4.97;;;;;;;;;;5107486;28;20207;-62
2022/12/08 01:32:48;;;;;;;8.97;5.10;;;;;;;;;;5091856;28;20326;-61
2022/12/08 01:35:15;;;;;;;6.03;3.83;;;;;;;;;;5090978;28;20210;-61
2022/12/08 01:37:42;;;;;;;6.63;4.50;;;;;;;;;;5097141;28;20203;-61
2022/12/08 01:40:10;;;;;;;7.47;4.03;;;;;;;;;;5101722;28;20197;-61
2022/12/08 01:42:37;;;;;;;10.30;5.10;;;;;;;;;;5095949;28;20203;-61
2022/12/08 01:45:06;;;;;;;6.87;4.87;;;;;;;;;;5091346;28;20206;-61
2022/12/08 01:47:36;;;;;;;8.80;4.80;;;;;;;;;;5105384;28;20208;-62
2022/12/08 01:50:06;;;;;;;7.97;5.40;;;;;;;;;;5108262;28;20198;-61
2022/12/08 01:52:36;;;;;;;9.70;5.20;;;;;;;;;;5108106;28;20788;-61
2022/12/08 01:55:05;;;;;;;6.67;5.20;;;;;;;;;;5092745;28;20221;-61
2022/12/08 01:57:34;;;;;;;8.60;5.07;;;;;;;;;;5090154;28;20204;-61
2022/12/08 02:00:03;;;;;;;8.30;4.97;;;;;;;;;;5109164;28;20740;-61
2022/12/08 02:02:31;;;;;;;8.43;4.67;;;;;;;;;;5107933;28;20209;-62
2022/12/08 02:04:58;;;;;;;9.93;5.40;;;;;;;;;;5105839;28;20202;-61
2022/12/08 02:07:28;;;;;;;9.30;5.17;;;;;;;;;;5109513;28;20239;-62
2022/12/08 02:09:55;;;;;;;8.00;4.70;;;;;;;;;;5088376;28;20250;-61
2022/12/08 02:12:22;;;;;;;8.07;5.13;;;;;;;;;;5088967;28;20210;-61
2022/12/08 02:14:49;;;;;;;6.90;4.37;;;;;;;;;;5088264;28;20211;-61
2022/12/08 02:17:22;;;;;;;9.17;5.23;;;;;;;;;;5088514;28;20202;-62
2022/12/08 02:20:07;;;;;;;12.90;5.43;;;;;;;;;;5094846;27;20227;-61
2022/12/08 02:22:39;;;;;;;8.63;4.53;;;;;;;;;;5077389;28;20210;-61
2022/12/08 02:25:11;;;;;;;9.67;5.97;;;;;;;;;;5102848;28;20206;-62
2022/12/08 02:27:43;;;;;;;10.27;4.90;;;;;;;;;;5108189;28;20213;-61
2022/12/08 02:30:20;;;;;;;9.87;4.90;;;;;;;;;;5107043;28;20642;-61
2022/12/08 02:32:59;;;;;;;7.37;4.77;;;;;;;;;;5092326;28;20271;-61
2022/12/08 02:35:28;;;;;;;6.83;4.40;;;;;;;;;;5096400;28;20218;-61
2022/12/08 02:37:58;;;;;;;8.47;4.43;;;;;;;;;;5091133;28;20204;-61
2022/12/08 02:40:27;;;;;;;8.17;4.60;;;;;;;;;;5095225;28;20662;-62
2022/12/08 02:42:56;;;;;;;9.27;5.17;;;;;;;;;;5088481;28;20206;-61
2022/12/08 02:45:25;;;;;;;10.40;5.03;;;;;;;;;;5088322;28;20208;-62
2022/12/08 02:47:53;;;;;;;11.10;5.20;;;;;;;;;;5087627;28;20232;-62
2022/12/08 02:50:20;;;;;;;10.40;5.37;;;;;;;;;;5104975;28;20657;-61
2022/12/08 02:52:48;;;;;;;18.70;5.70;;;;;;;;;;5108546;27;20811;-61
2022/12/08 02:55:22;;;;;;;6.40;4.40;;;;;;;;;;5095827;28;20226;-62
2022/12/08 02:57:57;;;;;;;10.10;4.57;;;;;;;;;;5102634;28;20208;-61
2022/12/08 03:00:25;;;;;;;9.23;5.67;;;;;;;;;;5106846;28;20227;-61
2022/12/08 03:03:01;;;;;;;14.80;5.00;;;;;;;;;;5105008;28;20220;-62
2022/12/08 03:05:33;;;;;;;6.83;4.83;;;;;;;;;;5100424;28;20215;-62
2022/12/08 03:08:03;;;;;;;5.30;4.10;;;;;;;;;;5107953;28;20273;-62
2022/12/08 03:10:33;;;;;;;5.97;4.00;;;;;;;;;;5101665;28;20680;-61
2022/12/08 03:13:04;;;;;;;7.57;3.97;;;;;;;;;;5106774;28;20217;-62
2022/12/08 03:15:32;;;;;;;6.83;4.70;;;;;;;;;;5088897;28;20202;-62
2022/12/08 03:18:00;;;;;;;6.33;4.53;;;;;;;;;;5089755;28;20207;-62
2022/12/08 03:20:30;;;;;;;10.67;5.10;;;;;;;;;;5100094;28;20634;-62
2022/12/08 03:22:59;;;;;;;8.07;5.20;;;;;;;;;;5096190;28;20202;-62
2022/12/08 03:25:28;;;;;;;7.60;4.27;;;;;;;;;;5100535;28;20194;-62
2022/12/08 03:27:55;;;;;;;12.07;4.80;;;;;;;;;;5103721;28;20571;-62
2022/12/08 03:30:22;;;;;;;10.83;4.60;;;;;;;;;;5106122;28;20203;-62
2022/12/08 03:32:52;;;;;;;6.57;4.60;;;;;;;;;;5091448;28;20683;-62
2022/12/08 03:35:22;;;;;;;8.63;4.60;;;;;;;;;;5088420;28;20292;-62
2022/12/08 03:37:49;;;;;;;9.37;4.67;;;;;;;;;;5089532;28;20589;-62
2022/12/08 03:40:18;;;;;;;9.07;4.90;;;;;;;;;;5101775;28;20232;-62
2022/12/08 03:42:46;;;;;;;12.37;5.00;;;;;;;;;;5107261;28;20204;-62
2022/12/08 03:45:13;;;;;;;7.03;5.03;;;;;;;;;;5103198;28;20711;-62
2022/12/08 03:47:41;;;;;;;9.57;4.80;;;;;;;;;;5107149;28;20698;-62
2022/12/08 03:50:08;;;;;;;7.67;4.37;;;;;;;;;;5107203;28;20761;-61
2022/12/08 03:52:35;;;;;;;9.47;4.83;;;;;;;;;;5088383;28;20691;-61
2022/12/08 03:55:02;;;;;;;6.40;4.70;;;;;;;;;;5088170;28;20590;-62
2022/12/08 03:57:29;;;;;;;12.37;5.47;;;;;;;;;;5088465;28;20195;-62
2022/12/08 03:59:58;;;;;;;7.60;4.97;;;;;;;;;;5090482;28;20239;-62
2022/12/08 04:02:25;;;;;;;8.37;4.53;;;;;;;;;;5097327;28;20198;-62
2022/12/08 04:04:52;;;;;;;9.37;5.50;;;;;;;;;;5108449;28;20204;-62
2022/12/08 04:07:19;;;;;;;7.77;4.50;;;;;;;;;;5108450;28;20244;-62
2022/12/08 04:09:46;;;;;;;12.23;5.10;;;;;;;;;;5108412;28;20202;-62
2022/12/08 04:12:13;;;;;;;6.27;4.20;;;;;;;;;;5105643;28;20217;-62
2022/12/08 04:14:40;;;;;;;6.57;4.07;;;;;;;;;;5108191;28;20205;-62
2022/12/08 04:17:08;;;;;;;5.03;4.17;;;;;;;;;;5108148;28;20207;-62
2022/12/08 04:19:35;;;;;;;11.60;5.13;;;;;;;;;;5107787;28;20226;-62
2022/12/08 04:22:03;;;;;;;9.37;5.47;;;;;;;;;;5106260;28;20209;-62
2022/12/08 04:24:30;;;;;;;6.77;4.30;;;;;;;;;;5087696;28;20202;-62
2022/12/08 04:26:57;;;;;;;8.13;3.90;;;;;;;;;;5091079;28;20201;-62
2022/12/08 04:29:24;;;;;;;8.80;4.87;;;;;;;;;;5107217;28;20227;-62
2022/12/08 04:31:51;;;;;;;7.60;4.63;;;;;;;;;;5092399;28;20216;-62
2022/12/08 04:34:19;;;;;;;11.40;4.73;;;;;;;;;;5095352;28;20208;-62
2022/12/08 04:36:46;;;;;;;9.30;4.67;;;;;;;;;;5094995;28;20213;-62
2022/12/08 04:39:13;;;;;;;6.73;4.87;;;;;;;;;;5108300;28;20230;-62
2022/12/08 04:41:40;;;;;;;5.50;4.03;;;;;;;;;;5109502;28;20688;-62
2022/12/08 04:44:08;;;;;;;7.80;4.83;;;;;;;;;;5106613;28;20228;-62
2022/12/08 04:46:44;;;;;;;10.77;4.37;;;;;;;;;;5098452;28;20207;-62
2022/12/08 04:49:11;;;;;;;5.60;4.33;;;;;;;;;;5099173;28;20213;-62
2022/12/08 04:51:39;;;;;;;9.17;4.60;;;;;;;;;;5108779;28;20205;-62
2022/12/08 04:54:06;;;;;;;9.13;4.83;;;;;;;;;;5096782;28;20233;-62
2022/12/08 04:56:34;;;;;;;5.73;3.67;;;;;;;;;;5110466;28;20229;-62
2022/12/08 04:59:01;;;;;;;7.07;4.00;;;;;;;;;;5091135;28;20226;-62
2022/12/08 05:01:28;;;;;;;6.83;4.03;;;;;;;;;;5090144;28;20315;-62
2022/12/08 05:03:55;;;;;;;8.83;4.67;;;;;;;;;;5090110;28;20198;-61
2022/12/08 05:06:23;;;;;;;7.57;4.27;;;;;;;;;;5092839;28;20337;-62
2022/12/08 05:08:51;;;;;;;6.83;4.07;;;;;;;;;;5111518;28;20288;-62
2022/12/08 05:11:19;;;;;;;8.10;4.63;;;;;;;;;;5110704;28;20206;-62
2022/12/08 05:13:46;;;;;;;5.93;3.90;;;;;;;;;;5094962;28;20208;-62
2022/12/08 05:16:15;;;;;;;9.60;4.07;;;;;;;;;;5111333;28;20213;-62
2022/12/08 05:18:42;;;;;;;7.40;4.20;;;;;;;;;;5100523;28;20212;-62
2022/12/08 05:21:10;;;;;;;6.00;3.87;;;;;;;;;;5090989;28;20234;-62
2022/12/08 05:23:37;;;;;;;5.93;4.13;;;;;;;;;;5090645;28;20219;-62
2022/12/08 05:26:06;;;;;;;7.23;4.20;;;;;;;;;;5103779;28;20660;-62
2022/12/08 05:28:33;;;;;;;15.40;3.63;;;;;;;;;;5099169;28;20202;-62
2022/12/08 05:31:00;;;;;;;6.07;3.90;;;;;;;;;;5092333;28;20209;-62
2022/12/08 05:33:27;;;;;;;4.17;3.40;;;;;;;;;;5101602;28;20210;-62
2022/12/08 05:35:54;;;;;;;6.17;3.87;;;;;;;;;;5090558;28;20692;-62
2022/12/08 05:38:21;;;;;;;7.73;4.33;;;;;;;;;;5107492;28;20220;-62
2022/12/08 05:40:48;;;;;;;5.27;3.80;;;;;;;;;;5110716;28;20611;-62
2022/12/08 05:43:17;;;;;;;7.10;3.43;;;;;;;;;;5108502;28;20206;-62
2022/12/08 05:45:44;;;;;;;9.53;4.70;;;;;;;;;;5111000;28;20215;-62
2022/12/08 05:48:11;;;;;;;5.03;3.70;;;;;;;;;;5109236;28;20210;-63
2022/12/08 05:50:38;;;;;;;10.13;3.63;;;;;;;;;;5110455;28;20209;-62
2022/12/08 05:53:05;;;;;;;5.80;3.67;;;;;;;;;;5108667;28;20621;-62
2022/12/08 05:55:32;;;;;;;8.07;3.80;;;;;;;;;;5110592;28;20327;-62
2022/12/08 05:57:59;;;;;;;5.13;3.67;;;;;;;;;;5108982;28;20206;-62
2022/12/08 06:00:28;;;;;;;4.90;3.43;;;;;;;;;;5109457;28;20731;-62
2022/12/08 06:02:55;;;;;;;6.20;3.63;;;;;;;;;;5089611;28;20232;-62
2022/12/08 06:05:22;;;;;;;7.67;4.93;;;;;;;;;;5100535;28;20213;-62
2022/12/08 06:07:49;;;;;;;6.70;4.20;;;;;;;;;;5100397;28;20287;-62
2022/12/08 06:10:16;;;;;;;4.47;3.53;;;;;;;;;;5088840;28;20199;-61
2022/12/08 06:12:43;;;;;;;4.63;3.60;;;;;;;;;;5100382;28;20667;-61
2022/12/08 06:15:11;;;;;;;6.83;3.90;;;;;;;;;;5108367;28;20671;-61
2022/12/08 06:17:39;;;;;;;21.67;4.43;;;;;;;;;;5102692;28;20205;-61
2022/12/08 06:20:07;;;;;;;6.57;4.03;;;;;;;;;;5089665;28;20608;-61
2022/12/08 06:22:34;;;;;;;6.50;3.07;;;;;;;;;;5103001;28;20216;-61
2022/12/08 06:25:01;;;;;;;6.33;3.90;;;;;;;;;;5110010;28;20217;-62
2022/12/08 06:27:28;;;;;;;10.33;2.97;;;;;;;;;;5093345;28;20220;-61
2022/12/08 06:29:56;;;;;;;4.10;3.27;;;;;;;;;;5090680;28;20874;-61
2022/12/08 06:32:23;;;;;;;5.80;4.07;;;;;;;;;;5089751;28;20267;-61
2022/12/08 06:34:51;;;;;;;5.57;3.73;;;;;;;;;;5090466;28;20208;-61
2022/12/08 06:37:18;;;;;;;4.13;2.97;;;;;;;;;;5108697;28;20228;-61
2022/12/08 06:39:46;;;;;;;7.97;5.03;;;;;;;;;;5108625;27;20249;-61
2022/12/08 06:44:58;;;;;;;5.60;3.60;;;;;;;;;;5089415;28;20724;-62
2022/12/08 06:47:25;;;;;;;6.93;3.77;;;;;;;;;;5099262;28;20258;-62
2022/12/08 06:49:53;;;;;;;3.17;2.77;;;;;;;;;;5108027;28;20201;-63
2022/12/08 06:52:20;;;;;;;7.30;4.27;;;;;;;;;;5109514;28;20210;-62
2022/12/08 06:54:47;;;;;;;3.90;3.40;;;;;;;;;;5109341;28;20225;-62
2022/12/08 06:57:14;;;;;;;10.77;3.73;;;;;;;;;;5093754;28;20200;-62
2022/12/08 06:59:42;;;;;;;6.33;3.77;;;;;;;;;;5102204;28;20241;-63
2022/12/08 07:02:09;;;;;;;4.60;3.37;;;;;;;;;;5108607;28;20213;-62
2022/12/08 07:04:36;;;;;;;5.33;3.87;;;;;;;;;;5108929;28;20210;-62
2022/12/08 07:07:05;;;;;;;9.63;3.90;;;;;;;;;;5109183;28;20239;-62
2022/12/08 07:09:32;;;;;;;3.97;3.10;;;;;;;;;;5099135;28;20229;-61
2022/12/08 07:11:59;;;;;;;5.37;3.50;;;;;;;;;;5088896;28;20613;-62
2022/12/08 07:14:26;;;;;;;5.90;3.93;;;;;;;;;;5089078;28;20211;-62
2022/12/08 07:16:53;;;;;;;5.50;3.43;;;;;;;;;;5095655;28;20732;-62
2022/12/08 07:19:20;;;;;;;5.50;2.83;;;;;;;;;;5103915;28;20222;-62
2022/12/08 07:21:47;;;;;;;6.13;3.27;;;;;;;;;;5088994;28;20210;-62
2022/12/08 07:24:16;;;;;;;4.87;3.47;;;;;;;;;;5088688;28;20206;-63
2022/12/08 07:26:43;;;;;;;3.27;2.97;;;;;;;;;;5094907;28;20679;-62
2022/12/08 07:29:10;;;;;;;5.10;3.57;;;;;;;;;;5107345;28;20296;-62
2022/12/08 07:31:37;;;;;;;6.27;3.70;;;;;;;;;;5108652;28;20699;-62
2022/12/08 07:34:04;;;;;;;6.53;3.57;;;;;;;;;;5109166;28;20209;-62
2022/12/08 07:36:32;;;;;;;6.00;3.23;;;;;;;;;;5105076;28;20214;-62
2022/12/08 07:38:59;;;;;;;4.27;3.10;;;;;;;;;;5091424;28;20228;-62
2022/12/08 07:41:27;;;;;;;4.97;3.30;;;;;;;;;;5108729;28;20241;-62
2022/12/08 07:43:56;;;;;;;6.27;3.40;;;;;;;;;;5108660;28;20205;-62
2022/12/08 07:46:24;;;;;;;4.63;3.07;;;;;;;;;;5107001;28;20216;-62
2022/12/08 07:48:52;;;;;;;6.07;3.67;;;;;;;;;;5108664;28;20720;-62
2022/12/08 07:51:19;;;;;;;7.50;3.73;;;;;;;;;;5090908;28;20207;-62
2022/12/08 07:53:47;;;;;;;6.27;4.20;;;;;;;;;;5108148;28;20209;-62
2022/12/08 07:56:14;;;;;;;6.57;3.37;;;;;;;;;;5088025;28;20238;-62
2022/12/08 07:58:44;;;;;;;8.60;4.40;;;;;;;;;;5088385;28;20680;-63
2022/12/08 08:01:19;;;;;;;8.30;4.17;;;;;;;;;;5103914;28;20317;-62
2022/12/08 08:03:46;;;;;;;7.03;4.13;;;;;;;;;;5108541;28;20220;-62
2022/12/08 08:06:13;;;;;;;5.50;3.77;;;;;;;;;;5108452;28;20248;-62
2022/12/08 08:08:40;;;;;;;3.70;3.40;;;;;;;;;;5088769;28;20693;-62
2022/12/08 08:11:07;;;;;;;7.53;3.90;;;;;;;;;;5102592;28;20209;-62
2022/12/08 08:13:34;;;;;;;8.60;4.80;;;;;;;;;;5110151;28;20724;-62
2022/12/08 08:16:05;;;;;;;5.40;4.23;;;;;;;;;;5112347;28;20210;-62
2022/12/08 08:18:32;;;;;;;5.23;3.63;;;;;;;;;;5111748;28;20713;-63
2022/12/08 08:20:59;;;;;;;4.13;3.17;;;;;;;;;;5101285;27;20692;-63
2022/12/08 08:23:26;;;;;;;7.17;4.00;;;;;;;;;;5112217;28;20664;-62
2022/12/08 08:25:53;;;;;;;7.43;4.20;;;;;;;;;;5112172;28;20218;-62
2022/12/08 08:28:20;;;;;;;7.57;4.33;;;;;;;;;;5100707;28;20207;-62
2022/12/08 08:30:48;;;;;;;6.30;3.97;;;;;;;;;;5093007;28;20206;-62
2022/12/08 08:33:16;;;;;;;3.57;3.10;;;;;;;;;;5091594;28;20217;-63
2022/12/08 08:35:43;;;;;;;4.87;3.80;;;;;;;;;;5095233;28;20197;-62
2022/12/08 08:38:10;;;;;;;5.50;3.10;;;;;;;;;;5111825;28;20856;-62
2022/12/08 08:40:37;;;;;;;7.23;3.87;;;;;;;;;;5111915;28;20233;-62
2022/12/08 08:43:06;;;;;;;5.83;3.83;;;;;;;;;;5095809;28;20210;-62
2022/12/08 08:45:33;;;;;;;5.77;3.77;;;;;;;;;;5091555;28;20210;-63
2022/12/08 08:48:00;;;;;;;6.23;3.63;;;;;;;;;;5095183;28;20198;-62
2022/12/08 08:50:28;;;;;;;6.23;3.43;;;;;;;;;;5111873;27;20208;-62
2022/12/08 08:52:55;;;;;;;6.87;3.60;;;;;;;;;;5099301;28;20942;-63
2022/12/08 08:55:22;;;;;;;10.77;2.67;;;;;;;;;;5091277;28;20241;-62
2022/12/08 08:57:50;;;;;;;5.40;3.57;;;;;;;;;;5091473;28;20672;-63
2022/12/08 09:00:17;;;;;;;4.63;3.23;;;;;;;;;;5091033;28;20719;-62
2022/12/08 09:02:44;;;;;;;4.23;3.23;;;;;;;;;;5098553;28;20228;-63
2022/12/08 09:05:12;;;;;;;4.33;2.20;;;;;;;;;;5111783;28;20207;-62
2022/12/08 09:07:40;;;;;;;6.30;3.47;;;;;;;;;;5111446;28;20611;-63
2022/12/08 09:10:08;;;;;;;6.20;3.50;;;;;;;;;;5111471;28;20578;-62
2022/12/08 09:12:35;;;;;;;5.60;3.53;;;;;;;;;;5107531;28;20640;-62
2022/12/08 09:15:02;;;;;;;4.83;3.60;;;;;;;;;;5091078;28;20234;-62
2022/12/08 09:17:29;;;;;;;8.43;3.83;;;;;;;;;;5090832;28;20218;-62
2022/12/08 09:19:56;;;;;;;5.23;3.40;;;;;;;;;;5090852;28;20215;-62
2022/12/08 09:22:23;;;;;;;3.97;3.03;;;;;;;;;;5102582;28;20296;-62
2022/12/08 09:24:52;;;;;;;6.23;4.47;;;;;;;;;;5096198;27;20205;-62
2022/12/08 09:27:19;;;;;;;11.40;3.63;;;;;;;;;;5111285;28;20665;-63
2022/12/08 09:29:46;;;;;;;7.27;4.30;;;;;;;;;;5105937;28;20766;-62
2022/12/08 09:32:13;;;;;;;6.63;4.10;;;;;;;;;;5090677;28;20233;-64
2022/12/08 09:34:40;;;;;;;4.00;3.43;;;;;;;;;;5104145;28;20207;-62
2022/12/08 09:37:07;;;;;;;9.67;4.33;;;;;;;;;;5090559;28;20217;-62
2022/12/08 09:39:34;;;;;;;5.40;3.80;;;;;;;;;;5090385;28;20275;-62
2022/12/08 09:42:04;;;;;;;5.93;3.30;;;;;;;;;;5090404;28;20228;-62
2022/12/08 09:44:41;;;;;;;8.57;3.83;;;;;;;;;;5101436;28;20219;-63
2022/12/08 09:47:13;;;;;;;5.50;2.97;;;;;;;;;;5090263;28;20211;-62
2022/12/08 09:49:43;;;;;;;5.60;3.80;;;;;;;;;;5090389;28;20784;-62
2022/12/08 09:52:12;;;;;;;4.40;3.97;;;;;;;;;;5099850;28;20210;-62
2022/12/08 09:54:39;;;;;;;9.07;3.40;;;;;;;;;;5100484;28;20218;-62
2022/12/08 09:57:13;;;;;;;5.13;3.30;;;;;;;;;;5107747;28;20209;-62
2022/12/08 09:59:40;;;;;;;6.27;3.50;;;;;;;;;;5108960;28;20616;-62
2022/12/08 10:02:13;;;;;;;5.07;3.30;;;;;;;;;;5089306;28;20700;-63
2022/12/08 10:04:41;;;;;;;6.83;3.50;;;;;;;;;;5090518;28;20234;-62
2022/12/08 10:07:13;;;;;;;8.03;3.37;;;;;;;;;;5095276;28;20260;-62
2022/12/08 10:09:42;;;;;;;6.97;4.30;;;;;;;;;;5090165;28;20211;-62
2022/12/08 10:12:18;;;;;;;4.07;2.97;;;;;;;;;;5101826;28;20195;-63
2022/12/08 10:14:47;;;;;;;5.90;3.90;;;;;;;;;;5098390;28;20667;-63
2022/12/08 10:17:18;;;;;;;4.60;3.23;;;;;;;;;;5089608;28;20225;-62
2022/12/08 10:19:45;;;;;;;5.33;3.53;;;;;;;;;;5100908;28;20675;-62
2022/12/08 10:22:15;;;;;;;10.10;3.50;;;;;;;;;;5109945;28;20225;-62
2022/12/08 10:24:46;;;;;;;5.73;3.37;;;;;;;;;;5110187;28;20224;-63
2022/12/08 10:27:15;;;;;;;6.37;3.60;;;;;;;;;;5109682;28;20219;-62
2022/12/08 10:29:42;;;;;;;6.77;3.53;;;;;;;;;;5109120;28;20204;-62
2022/12/08 10:32:14;;;;;;;5.50;3.20;;;;;;;;;;5109933;28;20209;-62
2022/12/08 10:34:56;;;;;;;5.27;3.33;;;;;;;;;;5109519;28;20603;-62
2022/12/08 10:37:23;;;;;;;7.70;3.97;;;;;;;;;;5108693;28;20213;-62
2022/12/08 10:39:59;;;;;;;4.60;3.47;;;;;;;;;;5103093;28;20231;-62
2022/12/08 10:42:38;;;;;;;7.00;3.73;;;;;;;;;;5089326;28;20320;-62
2022/12/08 10:45:20;;;;;;;5.17;3.43;;;;;;;;;;5089406;28;20231;-63
2022/12/08 10:47:56;;;;;;;4.37;3.53;;;;;;;;;;5102689;28;20711;-63
2022/12/08 10:50:24;;;;;;;3.73;3.03;;;;;;;;;;5099828;28;20251;-62
2022/12/08 10:52:55;;;;;;;5.03;3.07;;;;;;;;;;5089113;28;20213;-62
2022/12/08 10:55:22;;;;;;;5.13;3.00;;;;;;;;;;5089094;28;20237;-63
2022/12/08 10:57:50;;;;;;;4.77;3.30;;;;;;;;;;5089197;28;20210;-62
2022/12/08 11:00:18;;;;;;;4.23;3.17;;;;;;;;;;5094582;28;20206;-63
2022/12/08 11:02:57;;;;;;;3.97;2.57;;;;;;;;;;5108916;28;20883;-62
2022/12/08 11:05:26;;;;;;;5.20;2.90;;;;;;;;;;5109367;28;20217;-62
2022/12/08 11:07:55;;;;;;;2.73;2.43;;;;;;;;;;5107749;28;20295;-62
2022/12/08 11:10:27;;;;;;;7.67;3.50;;;;;;;;;;5108634;28;20202;-62
2022/12/08 11:12:57;;;;;;;4.37;3.03;;;;;;;;;;5109000;28;20208;-63
2022/12/08 11:15:34;;;;;;;5.80;2.83;;;;;;;;;;5096634;28;20300;-63
2022/12/08 11:18:07;;;;;;;3.03;2.63;;;;;;;;;;5088807;28;20202;-62
2022/12/08 11:20:39;;;;;;;5.73;3.10;;;;;;;;;;5088359;28;20588;-63
2022/12/08 11:23:18;;;;;;;4.80;2.80;;;;;;;;;;5088612;28;20210;-62
2022/12/08 11:25:45;;;;;;;5.00;2.90;;;;;;;;;;5088750;28;20220;-62
2022/12/08 11:28:14;;;;;;;6.70;3.30;;;;;;;;;;5088722;28;20217;-62
2022/12/08 11:30:44;;;;;;;4.67;2.83;;;;;;;;;;5099488;28;20208;-63
2022/12/08 11:33:15;;;;;;;2.77;2.30;;;;;;;;;;5088558;28;20210;-62
2022/12/08 11:35:44;;;;;;;2.47;2.27;;;;;;;;;;5088691;28;20210;-62
2022/12/08 11:38:12;;;;;;;4.17;2.67;;;;;;;;;;5101190;28;20217;-63
2022/12/08 11:40:41;;;;;;;2.73;2.50;;;;;;;;;;5100181;28;20207;-62
2022/12/08 11:43:12;;;;;;;3.80;2.80;;;;;;;;;;5101479;28;20197;-65
2022/12/08 11:45:42;;;;;;;4.73;2.80;;;;;;;;;;5108526;28;20213;-62
2022/12/08 11:48:12;;;;;;;2.67;2.50;;;;;;;;;;5110093;28;20240;-62
2022/12/08 11:50:42;;;;;;;3.90;2.60;;;;;;;;;;5107470;28;20209;-62
2022/12/08 11:53:14;;;;;;;3.37;3.07;;;;;;;;;;5092385;28;20657;-62
2022/12/08 11:55:43;;;;;;;5.27;3.07;;;;;;;;;;5092587;28;20229;-62
2022/12/08 11:58:15;;;;;;;3.07;2.40;;;;;;;;;;5092446;28;20206;-62
2022/12/08 12:00:43;;;;;;;2.73;2.43;;;;;;;;;;5094969;28;20202;-62
2022/12/08 12:03:18;;;;;;;2.23;2.03;;;;;;;;;;5107023;28;20313;-62
2022/12/08 12:05:50;;;;;;;3.40;2.70;;;;;;;;;;5092377;28;20209;-62
2022/12/08 12:08:24;;;;;;;3.90;3.07;;;;;;;;;;5098663;28;20238;-62
2022/12/08 12:10:56;;;;;;;4.67;2.60;;;;;;;;;;5093184;28;20210;-62
2022/12/08 12:13:37;;;;;;;4.40;3.10;;;;;;;;;;5112161;28;20209;-62
2022/12/08 12:16:15;;;;;;;4.43;2.73;;;;;;;;;;5112547;28;20209;-62
2022/12/08 12:18:45;;;;;;;4.03;2.37;;;;;;;;;;5105648;28;20206;-62
2022/12/08 12:21:15;;;;;;;1.57;1.47;;;;;;;;;;5092835;28;20226;-62
2022/12/08 12:23:44;;;;;;;2.47;1.40;;;;;;;;;;5091884;28;20211;-62
2022/12/08 12:26:18;;;;;;;1.33;1.23;;;;;;;;;;5092894;28;20202;-62
2022/12/08 12:28:51;;;;;;;1.13;1.10;;;;;;;;;;5092881;28;20310;-62
2022/12/08 12:31:22;;;;;;;1.10;1.10;;;;;;;;;;5095900;28;20570;-63
2022/12/08 12:33:50;;;;;;;1.00;0.90;;;;;;;;;;5093251;28;20232;-62
2022/12/08 12:36:17;;;;;;;0.97;0.97;;;;;;;;;;5094194;28;20666;-63
2022/12/08 12:39:03;;;;;;;1.33;1.30;;;;;;;;;;5102077;28;20202;-63
2022/12/08 12:41:33;;;;;;;0.90;0.90;;;;;;;;;;5105643;27;20226;-62
2022/12/08 12:44:22;;;;;;;0.70;0.70;;;;;;;;;;5091571;28;20206;-63
2022/12/08 12:46:59;;;;;;;0.97;0.97;;;;;;;;;;5101416;28;20201;-63
2022/12/08 12:49:50;;;;;;;1.43;1.33;;;;;;;;;;5111620;28;20213;-62
2022/12/08 12:52:36;;;;;;;1.17;1.17;;;;;;;;;;5093155;28;20207;-63
2022/12/08 12:55:36;;;;;;;1.23;0.90;;;;;;;;;;5092078;28;20583;-63
2022/12/08 12:58:19;;;;;;;0.83;0.83;;;;;;;;;;5108817;28;20206;-62
2022/12/08 13:00:46;;;;;;;0.80;0.80;;;;;;;;;;5110530;28;20212;-62
2022/12/08 13:03:16;;;;;;;2.77;0.90;;;;;;;;;;5111067;28;20230;-62
2022/12/08 13:05:48;;;;;;;1.07;1.07;;;;;;;;;;5102286;28;20595;-63
2022/12/08 13:08:19;;;;;;;0.77;0.77;;;;;;;;;;5092409;28;20245;-62
2022/12/08 13:10:50;;;;;;;0.80;0.80;;;;;;;;;;5105884;28;20221;-62
2022/12/08 13:13:19;;;;;;;1.27;1.00;;;;;;;;;;5111212;28;20556;-62
2022/12/08 13:15:50;;;;;;;5.00;1.03;;;;;;;;;;5099162;28;20212;-62
2022/12/08 13:18:19;;;;;;;1.07;1.07;;;;;;;;;;5110791;28;20263;-62
2022/12/08 13:20:47;;;;;;;0.80;0.80;;;;;;;;;;5108663;28;20201;-62
2022/12/08 13:23:26;;;;;;;0.87;0.87;;;;;;;;;;5110785;28;20233;-63
2022/12/08 13:26:08;;;;;;;0.90;0.90;;;;;;;;;;5095537;28;20600;-62
2022/12/08 13:28:55;;;;;;;1.80;1.00;;;;;;;;;;5096765;28;20221;-62
2022/12/08 13:31:37;;;;;;;1.07;1.07;;;;;;;;;;5110552;28;20307;-62
2022/12/08 13:34:06;;;;;;;1.13;1.10;;;;;;;;;;5109470;28;20214;-62
2022/12/08 13:36:34;;;;;;;0.50;0.50;;;;;;;;;;5100208;28;20615;-63
2022/12/08 13:39:02;;;;;;;2.97;1.93;;;;;;;;;;5095933;28;20209;-62
2022/12/08 13:41:32;;;;;;;0.90;0.90;;;;;;;;;;5095107;28;20206;-62
2022/12/08 13:44:03;;;;;;;1.17;0.90;;;;;;;;;;5089560;28;20209;-62
2022/12/08 13:46:34;;;;;;;0.90;0.90;;;;;;;;;;5089623;28;20263;-62
2022/12/08 13:49:03;;;;;;;1.97;1.33;;;;;;;;;;5093187;28;20217;-62
2022/12/08 13:51:35;;;;;;;1.00;1.00;;;;;;;;;;5089590;28;20198;-63
2022/12/08 13:54:05;;;;;;;1.50;1.40;;;;;;;;;;5089284;28;20214;-62
2022/12/08 13:56:34;;;;;;;1.13;1.13;;;;;;;;;;5091179;28;20948;-62
2022/12/08 13:59:08;;;;;;;2.30;1.50;;;;;;;;;;5098890;28;20232;-62
2022/12/08 14:01:41;;;;;;;1.13;1.13;;;;;;;;;;5109420;28;20228;-62
2022/12/08 14:04:14;;;;;;;0.93;0.90;;;;;;;;;;5101531;28;20213;-62
2022/12/08 14:06:43;;;;;;;0.93;0.93;;;;;;;;;;5089055;28;20253;-62
2022/12/08 14:09:12;;;;;;;1.20;1.10;;;;;;;;;;5096626;28;20201;-62
2022/12/08 14:11:40;;;;;;;1.10;1.00;;;;;;;;;;5098096;28;20201;-62
2022/12/08 14:14:09;;;;;;;0.80;0.73;;;;;;;;;;5089418;28;20874;-62
2022/12/08 14:16:37;;;;;;;1.13;1.03;;;;;;;;;;5088932;28;20221;-62
2022/12/08 14:19:07;;;;;;;1.40;1.30;;;;;;;;;;5096058;28;20312;-62
2022/12/08 14:21:34;;;;;;;2.23;1.07;;;;;;;;;;5107193;28;20202;-62
2022/12/08 14:24:05;;;;;;;0.97;0.93;;;;;;;;;;5107454;28;20206;-62
2022/12/08 14:26:34;;;;;;;1.80;0.83;;;;;;;;;;5109106;28;20854;-63
2022/12/08 14:29:01;;;;;;;1.77;1.50;;;;;;;;;;5108982;28;20301;-62
2022/12/08 14:31:29;;;;;;;1.07;1.07;;;;;;;;;;5102683;28;20198;-62
2022/12/08 14:33:56;;;;;;;1.37;1.37;;;;;;;;;;5088530;28;20214;-62
2022/12/08 14:36:23;;;;;;;3.03;1.47;;;;;;;;;;5093606;28;20202;-63
2022/12/08 14:38:52;;;;;;;1.23;1.10;;;;;;;;;;5108357;28;20286;-62
2022/12/08 14:41:25;;;;;;;0.80;0.80;;;;;;;;;;5108705;28;20209;-62
2022/12/08 14:43:59;;;;;;;1.77;1.67;;;;;;;;;;5108849;27;20721;-63
2022/12/08 14:46:26;;;;;;;1.50;1.40;;;;;;;;;;5108550;28;20221;-63
2022/12/08 14:48:55;;;;;;;2.37;1.90;;;;;;;;;;5088145;28;20206;-63
2022/12/08 14:51:25;;;;;;;1.40;1.30;;;;;;;;;;5093353;28;20208;-62
2022/12/08 14:53:54;;;;;;;1.30;1.20;;;;;;;;;;5108698;28;20205;-63
2022/12/08 14:56:23;;;;;;;1.37;1.27;;;;;;;;;;5108534;28;20230;-63
2022/12/08 14:58:51;;;;;;;1.30;1.00;;;;;;;;;;5106960;28;20205;-63
2022/12/08 15:01:22;;;;;;;1.23;1.23;;;;;;;;;;5093730;28;20679;-63
2022/12/08 15:03:49;;;;;;;1.60;1.30;;;;;;;;;;5099496;28;20234;-63